Time;durP1;ratioP1;P1;durP2;ratioP2;P2;SDS_P1;SDS_P2;PMS_P1;PMS_P2;Temp;Humidity;BMP_temperature;BMP_pressure;BME280_temperature;BME280_humidity;BME280_pressure;Samples;Min_cycle;Max_cycle;Signal;HPM_P1;HPM_P2
2021/12/29 00:02:05;;;;;;;15.68;13.70;;;;;;;;;;5104026;28;24504;-55
2021/12/29 00:04:31;;;;;;;16.30;14.50;;;;;;;;;;5103500;28;24497;-54
2021/12/29 00:06:57;;;;;;;18.73;15.75;;;;;;;;;;5099819;28;24451;-55
2021/12/29 00:09:22;;;;;;;16.43;14.63;;;;;;;;;;5100131;28;24835;-55
2021/12/29 00:11:47;;;;;;;16.67;14.90;;;;;;;;;;5098169;28;24420;-55
2021/12/29 00:14:13;;;;;;;15.80;14.20;;;;;;;;;;5101156;28;24943;-56
2021/12/29 00:16:38;;;;;;;16.43;14.60;;;;;;;;;;5101060;28;24497;-56
2021/12/29 00:19:06;;;;;;;16.63;14.83;;;;;;;;;;5102689;28;24437;-59
2021/12/29 00:21:33;;;;;;;18.77;14.50;;;;;;;;;;5098940;28;24424;-56
2021/12/29 00:23:59;;;;;;;16.17;14.40;;;;;;;;;;5100977;28;24510;-57
2021/12/29 00:26:28;;;;;;;19.10;15.15;;;;;;;;;;5102576;28;24540;-56
2021/12/29 00:28:53;;;;;;;17.65;14.75;;;;;;;;;;5101165;28;24467;-55
2021/12/29 00:31:19;;;;;;;18.10;15.03;;;;;;;;;;5102522;28;24398;-56
2021/12/29 00:33:44;;;;;;;18.17;16.13;;;;;;;;;;5098330;28;24413;-56
2021/12/29 00:36:09;;;;;;;17.00;15.20;;;;;;;;;;5100655;28;24817;-55
2021/12/29 00:38:34;;;;;;;18.37;14.47;;;;;;;;;;5100886;28;24470;-55
2021/12/29 00:41:00;;;;;;;17.90;15.77;;;;;;;;;;5102072;28;24413;-54
2021/12/29 00:43:25;;;;;;;18.73;13.93;;;;;;;;;;5096318;28;25194;-55
2021/12/29 00:45:51;;;;;;;15.98;14.27;;;;;;;;;;5098654;28;24457;-55
2021/12/29 00:48:17;;;;;;;16.05;13.75;;;;;;;;;;5102026;28;24409;-55
2021/12/29 00:50:43;;;;;;;17.52;14.30;;;;;;;;;;5096108;28;24406;-55
2021/12/29 00:53:08;;;;;;;16.43;14.73;;;;;;;;;;5097168;28;24432;-55
2021/12/29 00:55:34;;;;;;;15.63;13.80;;;;;;;;;;5100536;28;24409;-54
2021/12/29 00:57:59;;;;;;;16.60;14.43;;;;;;;;;;5101337;28;24971;-55
2021/12/29 01:00:25;;;;;;;16.60;14.02;;;;;;;;;;5102539;28;24460;-56
2021/12/29 01:02:51;;;;;;;14.90;13.30;;;;;;;;;;5104595;28;24438;-55
2021/12/29 01:05:17;;;;;;;18.25;15.48;;;;;;;;;;5102190;28;24448;-56
2021/12/29 01:07:44;;;;;;;14.90;13.30;;;;;;;;;;5102218;28;25304;-55
2021/12/29 01:10:10;;;;;;;16.03;14.10;;;;;;;;;;5102262;28;24402;-55
2021/12/29 01:12:35;;;;;;;16.17;14.32;;;;;;;;;;5104884;28;24645;-56
2021/12/29 01:15:02;;;;;;;17.33;15.53;;;;;;;;;;5106421;28;25016;-56
2021/12/29 01:17:28;;;;;;;17.20;14.68;;;;;;;;;;5102401;28;24502;-55
2021/12/29 01:19:54;;;;;;;15.13;13.20;;;;;;;;;;5102006;28;24525;-55
2021/12/29 01:22:20;;;;;;;15.20;13.60;;;;;;;;;;5106140;28;24422;-55
2021/12/29 01:24:46;;;;;;;15.10;13.30;;;;;;;;;;5103939;28;24416;-55
2021/12/29 01:27:12;;;;;;;15.95;12.80;;;;;;;;;;5106042;28;24494;-56
2021/12/29 01:29:37;;;;;;;15.57;13.77;;;;;;;;;;5104258;28;24421;-56
2021/12/29 01:32:02;;;;;;;15.70;13.68;;;;;;;;;;5102251;28;24398;-58
2021/12/29 01:34:27;;;;;;;14.90;13.27;;;;;;;;;;5101506;28;24489;-56
2021/12/29 01:36:53;;;;;;;14.50;12.90;;;;;;;;;;5104096;28;25085;-56
2021/12/29 01:39:19;;;;;;;15.55;13.57;;;;;;;;;;5105151;28;24513;-56
2021/12/29 01:41:45;;;;;;;14.40;12.80;;;;;;;;;;5103633;28;24596;-56
2021/12/29 01:44:11;;;;;;;15.75;12.88;;;;;;;;;;5101128;28;24959;-55
2021/12/29 01:46:38;;;;;;;13.60;12.30;;;;;;;;;;5102503;28;24428;-54
2021/12/29 01:49:04;;;;;;;15.65;13.90;;;;;;;;;;5096677;28;25185;-55
2021/12/29 01:51:30;;;;;;;14.40;12.90;;;;;;;;;;5103989;28;24561;-54
2021/12/29 01:54:15;;;;;;;15.18;12.40;;;;;;;;;;5099933;28;24951;-54
2021/12/29 01:56:42;;;;;;;14.68;12.73;;;;;;;;;;5101044;28;24402;-55
2021/12/29 01:59:07;;;;;;;16.38;13.20;;;;;;;;;;5097197;28;24511;-56
2021/12/29 02:01:33;;;;;;;15.00;13.25;;;;;;;;;;5096995;28;24430;-55
2021/12/29 02:04:00;;;;;;;16.30;13.10;;;;;;;;;;5104209;28;24465;-54
2021/12/29 02:06:25;;;;;;;16.43;13.90;;;;;;;;;;5104161;28;24468;-55
2021/12/29 02:08:53;;;;;;;14.77;13.27;;;;;;;;;;5100400;28;24424;-55
2021/12/29 02:11:25;;;;;;;15.70;14.10;;;;;;;;;;5104328;28;24429;-56
2021/12/29 02:13:50;;;;;;;14.60;12.55;;;;;;;;;;5103084;28;24414;-55
2021/12/29 02:16:15;;;;;;;17.03;13.63;;;;;;;;;;5105865;28;24482;-55
2021/12/29 02:18:41;;;;;;;14.60;13.10;;;;;;;;;;5101097;28;24459;-55
2021/12/29 02:21:06;;;;;;;15.82;13.35;;;;;;;;;;5098184;28;24417;-55
2021/12/29 02:23:45;;;;;;;15.07;13.47;;;;;;;;;;5096749;28;24406;-55
2021/12/29 02:26:12;;;;;;;14.82;12.85;;;;;;;;;;5094720;28;24829;-55
2021/12/29 02:28:41;;;;;;;14.93;13.32;;;;;;;;;;5101214;28;24613;-54
2021/12/29 02:31:06;;;;;;;17.75;14.18;;;;;;;;;;5102343;28;24406;-55
2021/12/29 02:33:31;;;;;;;16.23;13.20;;;;;;;;;;5102915;28;24471;-55
2021/12/29 02:35:58;;;;;;;14.97;13.37;;;;;;;;;;5104564;28;24425;-55
2021/12/29 02:38:23;;;;;;;15.00;13.40;;;;;;;;;;5104964;28;24510;-55
2021/12/29 02:40:50;;;;;;;14.60;12.83;;;;;;;;;;5101302;28;24929;-55
2021/12/29 02:43:19;;;;;;;17.60;14.30;;;;;;;;;;5102117;28;24829;-55
2021/12/29 02:45:51;;;;;;;16.73;14.02;;;;;;;;;;5101413;28;24510;-56
2021/12/29 02:48:16;;;;;;;15.30;13.70;;;;;;;;;;5104928;28;24441;-55
2021/12/29 02:50:42;;;;;;;17.33;14.63;;;;;;;;;;5100968;28;24430;-56
2021/12/29 02:53:09;;;;;;;17.10;14.18;;;;;;;;;;5103975;28;24425;-55
2021/12/29 02:55:35;;;;;;;16.02;14.32;;;;;;;;;;5102584;28;24432;-55
2021/12/29 02:58:00;;;;;;;15.40;13.80;;;;;;;;;;5100043;28;24987;-55
2021/12/29 03:00:25;;;;;;;15.90;14.30;;;;;;;;;;5104667;28;24950;-55
2021/12/29 03:02:50;;;;;;;15.43;13.82;;;;;;;;;;5102658;28;24413;-56
2021/12/29 03:05:15;;;;;;;17.60;14.70;;;;;;;;;;5102875;28;24456;-56
2021/12/29 03:07:40;;;;;;;16.00;14.00;;;;;;;;;;5102348;28;24869;-55
2021/12/29 03:10:06;;;;;;;17.30;14.32;;;;;;;;;;5100271;28;24410;-56
2021/12/29 03:12:31;;;;;;;16.10;13.97;;;;;;;;;;5099011;28;24858;-56
2021/12/29 03:14:58;;;;;;;15.87;14.03;;;;;;;;;;5103480;28;25096;-55
2021/12/29 03:17:23;;;;;;;15.30;13.70;;;;;;;;;;5104096;28;24418;-55
2021/12/29 03:19:49;;;;;;;17.03;15.23;;;;;;;;;;5098803;28;24835;-56
2021/12/29 03:22:14;;;;;;;15.30;13.70;;;;;;;;;;5102282;28;24502;-55
2021/12/29 03:24:39;;;;;;;16.27;14.57;;;;;;;;;;5100766;28;24572;-56
2021/12/29 03:27:04;;;;;;;16.53;14.83;;;;;;;;;;5103360;28;24413;-56
2021/12/29 03:29:30;;;;;;;16.48;13.93;;;;;;;;;;5101787;28;24425;-55
2021/12/29 03:31:55;;;;;;;17.55;14.35;;;;;;;;;;5097208;28;24410;-56
2021/12/29 03:34:20;;;;;;;15.40;13.40;;;;;;;;;;5098498;28;25028;-55
2021/12/29 03:36:45;;;;;;;16.42;14.27;;;;;;;;;;5100844;28;24524;-55
2021/12/29 03:39:11;;;;;;;15.27;13.67;;;;;;;;;;5103405;28;24508;-55
2021/12/29 03:41:36;;;;;;;16.20;14.50;;;;;;;;;;5101558;28;24985;-55
2021/12/29 03:44:01;;;;;;;16.15;14.43;;;;;;;;;;5098708;28;24969;-55
2021/12/29 03:46:27;;;;;;;16.30;14.30;;;;;;;;;;5102430;28;24832;-55
2021/12/29 03:48:52;;;;;;;16.98;15.25;;;;;;;;;;5099991;28;24969;-55
2021/12/29 03:51:18;;;;;;;17.13;15.23;;;;;;;;;;5098724;28;24429;-55
2021/12/29 03:53:43;;;;;;;17.63;15.73;;;;;;;;;;5092700;28;24416;-55
2021/12/29 03:56:08;;;;;;;15.60;13.90;;;;;;;;;;5102474;28;24736;-55
2021/12/29 03:58:34;;;;;;;16.60;14.02;;;;;;;;;;5101359;28;24812;-56
2021/12/29 04:01:06;;;;;;;16.57;14.77;;;;;;;;;;5090153;28;24944;-55
2021/12/29 04:03:31;;;;;;;18.30;16.20;;;;;;;;;;5099303;28;24441;-55
2021/12/29 04:05:57;;;;;;;16.16;14.48;;;;;;;;;;5098545;28;24524;-55
2021/12/29 04:08:22;;;;;;;15.80;14.10;;;;;;;;;;5102058;28;24895;-55
2021/12/29 04:10:48;;;;;;;18.20;14.83;;;;;;;;;;5097798;28;25147;-55
2021/12/29 04:13:13;;;;;;;16.80;14.30;;;;;;;;;;5103094;28;24456;-55
2021/12/29 04:15:38;;;;;;;15.63;14.03;;;;;;;;;;5098865;28;24517;-55
2021/12/29 04:18:14;;;;;;;15.37;13.30;;;;;;;;;;5100477;28;24541;-55
2021/12/29 04:20:55;;;;;;;16.13;14.40;;;;;;;;;;5098724;28;24834;-55
2021/12/29 04:23:21;;;;;;;15.80;14.10;;;;;;;;;;5086791;28;24424;-55
2021/12/29 04:25:49;;;;;;;17.45;14.50;;;;;;;;;;5095946;28;24445;-56
2021/12/29 04:28:20;;;;;;;15.73;13.93;;;;;;;;;;5097416;28;24417;-55
2021/12/29 04:30:45;;;;;;;14.85;13.25;;;;;;;;;;5099961;28;24520;-54
2021/12/29 04:33:10;;;;;;;15.75;14.00;;;;;;;;;;5102467;28;25050;-55
2021/12/29 04:35:35;;;;;;;14.97;13.30;;;;;;;;;;5102088;28;24428;-55
2021/12/29 04:38:00;;;;;;;13.70;12.30;;;;;;;;;;5100616;28;24450;-55
2021/12/29 04:40:26;;;;;;;19.27;16.23;;;;;;;;;;5096386;28;24851;-55
2021/12/29 04:42:51;;;;;;;15.80;13.70;;;;;;;;;;5098885;28;24461;-55
2021/12/29 04:45:16;;;;;;;15.00;13.50;;;;;;;;;;5102698;28;24965;-55
2021/12/29 04:47:45;;;;;;;14.05;12.55;;;;;;;;;;5100796;28;24509;-55
2021/12/29 04:50:24;;;;;;;13.82;11.90;;;;;;;;;;5098553;28;24414;-54
2021/12/29 04:52:51;;;;;;;13.63;11.95;;;;;;;;;;5098374;28;24772;-54
2021/12/29 04:55:16;;;;;;;14.35;12.85;;;;;;;;;;5100145;28;24413;-55
2021/12/29 04:57:41;;;;;;;14.43;12.93;;;;;;;;;;5100388;28;24417;-55
2021/12/29 05:00:07;;;;;;;13.63;12.23;;;;;;;;;;5099256;28;24471;-55
2021/12/29 05:02:32;;;;;;;14.30;12.90;;;;;;;;;;5100705;28;24444;-55
2021/12/29 05:05:01;;;;;;;13.75;12.40;;;;;;;;;;5094043;28;24467;-55
2021/12/29 05:10:10;;;;;;;13.73;12.32;;;;;;;;;;5099876;28;24458;-55
2021/12/29 05:12:35;;;;;;;14.07;12.57;;;;;;;;;;5098238;28;24414;-55
2021/12/29 05:15:00;;;;;;;14.30;12.63;;;;;;;;;;5102222;28;24405;-55
2021/12/29 05:17:26;;;;;;;15.40;13.30;;;;;;;;;;5101889;28;24653;-55
2021/12/29 05:19:51;;;;;;;14.85;13.25;;;;;;;;;;5098315;28;24402;-55
2021/12/29 05:22:16;;;;;;;15.73;14.00;;;;;;;;;;5096029;28;24437;-55
2021/12/29 05:24:41;;;;;;;14.77;13.17;;;;;;;;;;5100293;28;24838;-55
2021/12/29 05:27:06;;;;;;;14.00;12.50;;;;;;;;;;5101132;28;24414;-55
2021/12/29 05:29:32;;;;;;;14.48;12.98;;;;;;;;;;5101432;28;24417;-55
2021/12/29 05:31:57;;;;;;;13.93;12.43;;;;;;;;;;5095966;28;24417;-55
2021/12/29 05:34:22;;;;;;;15.83;13.73;;;;;;;;;;5088802;28;25001;-54
2021/12/29 05:36:47;;;;;;;15.82;13.13;;;;;;;;;;5099871;28;24418;-55
2021/12/29 05:39:12;;;;;;;16.38;13.60;;;;;;;;;;5101695;28;24499;-54
2021/12/29 05:41:38;;;;;;;15.60;13.20;;;;;;;;;;5098539;28;24831;-55
2021/12/29 05:44:03;;;;;;;13.10;11.70;;;;;;;;;;5095919;28;24412;-55
2021/12/29 05:46:28;;;;;;;13.80;12.40;;;;;;;;;;5099633;28;24582;-54
2021/12/29 05:48:53;;;;;;;13.90;12.37;;;;;;;;;;5104464;28;24448;-55
2021/12/29 05:51:18;;;;;;;14.65;13.15;;;;;;;;;;5104671;28;24950;-55
2021/12/29 05:53:44;;;;;;;15.17;12.87;;;;;;;;;;5103564;28;24547;-55
2021/12/29 05:56:09;;;;;;;13.63;12.20;;;;;;;;;;5103070;28;24954;-55
2021/12/29 05:58:35;;;;;;;14.20;12.70;;;;;;;;;;5098911;28;24526;-55
2021/12/29 06:01:00;;;;;;;15.50;13.90;;;;;;;;;;5102886;28;24910;-56
2021/12/29 06:03:25;;;;;;;14.90;12.77;;;;;;;;;;5105779;28;24437;-55
2021/12/29 06:05:50;;;;;;;14.70;13.10;;;;;;;;;;5092207;28;24445;-54
2021/12/29 06:08:15;;;;;;;14.80;12.47;;;;;;;;;;5104297;28;25435;-55
2021/12/29 06:10:41;;;;;;;13.52;12.23;;;;;;;;;;5102698;28;24405;-55
2021/12/29 06:13:06;;;;;;;14.70;13.10;;;;;;;;;;5101634;28;24417;-54
2021/12/29 06:15:31;;;;;;;15.23;13.43;;;;;;;;;;5101764;28;24415;-55
2021/12/29 06:17:56;;;;;;;16.10;14.03;;;;;;;;;;5105976;28;24390;-56
2021/12/29 06:20:22;;;;;;;14.97;13.10;;;;;;;;;;5103618;28;24421;-56
2021/12/29 06:22:47;;;;;;;15.40;13.70;;;;;;;;;;5103523;28;24946;-55
2021/12/29 06:25:14;;;;;;;18.50;15.07;;;;;;;;;;5100598;28;24521;-55
2021/12/29 06:27:40;;;;;;;16.90;14.63;;;;;;;;;;5100820;28;24955;-55
2021/12/29 06:30:06;;;;;;;14.53;13.03;;;;;;;;;;5104221;28;24420;-55
2021/12/29 06:32:31;;;;;;;14.50;12.23;;;;;;;;;;5104704;28;24420;-55
2021/12/29 06:34:56;;;;;;;15.95;13.15;;;;;;;;;;5102135;28;24417;-55
2021/12/29 06:37:22;;;;;;;15.75;13.00;;;;;;;;;;5101399;28;24463;-55
2021/12/29 06:39:47;;;;;;;15.07;13.20;;;;;;;;;;5101709;28;24497;-55
2021/12/29 06:42:15;;;;;;;16.63;13.77;;;;;;;;;;5103774;28;24424;-55
2021/12/29 06:44:40;;;;;;;14.85;13.23;;;;;;;;;;5102424;28;24416;-55
2021/12/29 06:47:06;;;;;;;15.75;13.68;;;;;;;;;;5100014;28;20795;-55
2021/12/29 06:49:31;;;;;;;15.03;12.80;;;;;;;;;;5096178;28;24402;-55
2021/12/29 06:51:56;;;;;;;14.73;13.17;;;;;;;;;;5097181;28;24939;-55
2021/12/29 06:54:21;;;;;;;15.00;13.40;;;;;;;;;;5104207;28;24414;-55
2021/12/29 06:56:47;;;;;;;15.20;13.70;;;;;;;;;;5098489;28;24456;-55
2021/12/29 06:59:12;;;;;;;15.13;13.40;;;;;;;;;;5099667;28;24425;-55
2021/12/29 07:01:37;;;;;;;16.03;13.23;;;;;;;;;;5095273;28;24994;-55
2021/12/29 07:04:03;;;;;;;17.83;14.20;;;;;;;;;;5103093;28;24482;-55
2021/12/29 07:06:28;;;;;;;15.80;14.07;;;;;;;;;;5101071;28;25053;-55
2021/12/29 07:08:54;;;;;;;15.10;13.00;;;;;;;;;;5097079;28;24508;-55
2021/12/29 07:11:19;;;;;;;16.00;13.88;;;;;;;;;;5100415;28;24410;-55
2021/12/29 07:13:44;;;;;;;14.35;12.82;;;;;;;;;;5092253;28;24422;-55
2021/12/29 07:16:10;;;;;;;16.13;13.88;;;;;;;;;;5100026;28;24498;-55
2021/12/29 07:18:35;;;;;;;18.30;14.40;;;;;;;;;;5091195;28;24418;-54
2021/12/29 07:21:00;;;;;;;15.60;13.20;;;;;;;;;;5101707;28;24532;-54
2021/12/29 07:23:25;;;;;;;16.07;14.37;;;;;;;;;;5102877;28;24965;-55
2021/12/29 07:25:50;;;;;;;14.53;12.93;;;;;;;;;;5097602;28;24425;-55
2021/12/29 07:28:16;;;;;;;15.43;13.60;;;;;;;;;;5101349;28;24823;-55
2021/12/29 07:30:41;;;;;;;17.23;13.93;;;;;;;;;;5098501;28;24406;-55
2021/12/29 07:33:06;;;;;;;16.03;13.83;;;;;;;;;;5101941;28;25039;-56
2021/12/29 07:35:31;;;;;;;17.37;14.50;;;;;;;;;;5095617;28;24409;-55
2021/12/29 07:37:56;;;;;;;15.55;13.35;;;;;;;;;;5096775;28;24425;-56
2021/12/29 07:40:21;;;;;;;18.00;13.90;;;;;;;;;;5103859;28;24393;-55
2021/12/29 07:42:47;;;;;;;17.03;14.63;;;;;;;;;;5100390;28;24989;-55
2021/12/29 07:45:13;;;;;;;16.60;14.45;;;;;;;;;;5097396;28;24945;-56
2021/12/29 07:47:43;;;;;;;15.50;13.07;;;;;;;;;;5099080;28;24451;-56
2021/12/29 07:50:09;;;;;;;14.98;13.38;;;;;;;;;;5099014;28;24429;-54
2021/12/29 07:52:34;;;;;;;15.88;13.73;;;;;;;;;;5096114;28;24429;-55
2021/12/29 07:54:59;;;;;;;15.30;13.53;;;;;;;;;;5089657;28;24601;-55
2021/12/29 07:57:24;;;;;;;15.40;12.77;;;;;;;;;;5093082;28;24505;-56
2021/12/29 07:59:49;;;;;;;17.10;13.90;;;;;;;;;;5082004;28;24941;-55
2021/12/29 08:02:17;;;;;;;17.10;13.85;;;;;;;;;;5097615;28;24652;-55
2021/12/29 08:04:43;;;;;;;14.80;13.23;;;;;;;;;;5094397;28;24440;-55
2021/12/29 08:07:08;;;;;;;15.77;13.57;;;;;;;;;;5089277;28;24472;-55
2021/12/29 08:09:33;;;;;;;15.38;13.20;;;;;;;;;;5083566;28;24425;-55
2021/12/29 08:11:58;;;;;;;15.75;14.02;;;;;;;;;;5073090;28;24823;-55
2021/12/29 08:14:23;;;;;;;13.63;12.13;;;;;;;;;;5092200;28;24568;-55
2021/12/29 08:16:48;;;;;;;15.60;13.70;;;;;;;;;;5094237;28;24425;-56
2021/12/29 08:19:15;;;;;;;16.05;13.25;;;;;;;;;;5087081;28;24914;-56
2021/12/29 08:21:41;;;;;;;14.05;12.55;;;;;;;;;;5094802;28;24497;-55
2021/12/29 08:24:06;;;;;;;13.82;11.77;;;;;;;;;;5099687;28;24414;-55
2021/12/29 08:26:31;;;;;;;14.83;12.70;;;;;;;;;;5096128;28;24463;-55
2021/12/29 08:28:58;;;;;;;14.00;12.40;;;;;;;;;;5091449;28;24462;-55
2021/12/29 08:31:24;;;;;;;15.38;12.18;;;;;;;;;;5094338;28;24410;-55
2021/12/29 08:33:49;;;;;;;15.48;13.45;;;;;;;;;;5087590;28;24428;-55
2021/12/29 08:36:14;;;;;;;17.38;13.70;;;;;;;;;;5101534;28;24445;-56
2021/12/29 08:38:39;;;;;;;13.60;12.10;;;;;;;;;;5095255;28;24780;-56
2021/12/29 08:41:04;;;;;;;14.00;12.17;;;;;;;;;;5097595;28;24413;-55
2021/12/29 08:43:31;;;;;;;14.50;12.30;;;;;;;;;;5096144;28;24543;-56
2021/12/29 08:45:56;;;;;;;15.68;12.70;;;;;;;;;;5097988;28;24838;-56
2021/12/29 08:48:21;;;;;;;13.40;11.52;;;;;;;;;;5089909;28;24428;-54
2021/12/29 08:50:47;;;;;;;13.90;12.40;;;;;;;;;;5098184;28;24459;-55
2021/12/29 08:53:12;;;;;;;14.33;12.83;;;;;;;;;;5100158;28;24990;-56
2021/12/29 08:55:39;;;;;;;14.13;12.63;;;;;;;;;;5092665;28;24421;-56
2021/12/29 08:58:07;;;;;;;14.50;12.45;;;;;;;;;;5097389;28;24512;-55
2021/12/29 09:00:33;;;;;;;14.00;12.50;;;;;;;;;;5098649;28;25464;-56
2021/12/29 09:02:58;;;;;;;14.10;12.60;;;;;;;;;;5090247;28;24441;-56
2021/12/29 09:05:23;;;;;;;14.93;13.33;;;;;;;;;;5100568;28;24516;-56
2021/12/29 09:07:48;;;;;;;13.83;12.33;;;;;;;;;;5098852;28;24401;-56
2021/12/29 09:10:14;;;;;;;15.23;12.60;;;;;;;;;;5102427;28;24508;-56
2021/12/29 09:12:40;;;;;;;12.55;11.35;;;;;;;;;;5097159;28;24455;-56
2021/12/29 09:15:06;;;;;;;13.03;11.73;;;;;;;;;;5101014;28;25036;-55
2021/12/29 09:17:31;;;;;;;12.90;11.60;;;;;;;;;;5099254;28;24430;-55
2021/12/29 09:19:56;;;;;;;13.43;12.10;;;;;;;;;;5100753;28;24565;-56
2021/12/29 09:22:21;;;;;;;14.20;12.40;;;;;;;;;;5100205;28;24385;-55
2021/12/29 09:24:46;;;;;;;14.20;12.70;;;;;;;;;;5101342;28;24890;-55
2021/12/29 09:27:13;;;;;;;14.20;12.40;;;;;;;;;;5106047;28;24429;-56
2021/12/29 09:29:38;;;;;;;12.30;11.00;;;;;;;;;;5105669;28;24393;-55
2021/12/29 09:32:04;;;;;;;13.07;11.67;;;;;;;;;;5106165;28;24941;-55
2021/12/29 09:34:29;;;;;;;13.50;12.10;;;;;;;;;;5104449;28;24387;-55
2021/12/29 09:36:55;;;;;;;13.13;11.73;;;;;;;;;;5100355;28;24946;-55
2021/12/29 09:39:20;;;;;;;13.10;11.80;;;;;;;;;;5100875;28;24451;-55
2021/12/29 09:41:45;;;;;;;12.93;11.53;;;;;;;;;;5104216;28;24436;-55
2021/12/29 09:44:11;;;;;;;13.43;12.02;;;;;;;;;;5106124;28;24418;-55
2021/12/29 09:46:37;;;;;;;12.93;11.50;;;;;;;;;;5104063;28;24418;-57
2021/12/29 09:49:02;;;;;;;13.30;11.77;;;;;;;;;;5102372;28;24517;-56
2021/12/29 09:51:28;;;;;;;13.20;11.90;;;;;;;;;;5101721;28;24417;-56
2021/12/29 09:53:53;;;;;;;13.83;12.17;;;;;;;;;;5106138;28;25050;-56
2021/12/29 09:56:18;;;;;;;14.60;13.10;;;;;;;;;;5105730;28;24443;-56
2021/12/29 09:58:43;;;;;;;15.47;13.77;;;;;;;;;;5100866;28;24406;-57
2021/12/29 10:01:10;;;;;;;13.77;12.35;;;;;;;;;;5101920;28;24513;-57
2021/12/29 10:03:35;;;;;;;13.80;12.40;;;;;;;;;;5101198;28;24638;-56
2021/12/29 10:06:02;;;;;;;13.23;11.83;;;;;;;;;;5101940;28;24959;-56
2021/12/29 10:08:29;;;;;;;12.70;11.40;;;;;;;;;;5105548;28;24415;-57
2021/12/29 10:10:55;;;;;;;14.10;12.23;;;;;;;;;;5103229;28;24776;-57
2021/12/29 10:13:21;;;;;;;13.90;12.50;;;;;;;;;;5103549;28;24413;-57
2021/12/29 10:15:48;;;;;;;15.00;13.40;;;;;;;;;;5100110;28;24398;-57
2021/12/29 10:18:21;;;;;;;14.55;13.02;;;;;;;;;;5105235;28;24911;-59
2021/12/29 10:20:48;;;;;;;15.63;13.93;;;;;;;;;;5105790;28;24767;-56
2021/12/29 10:23:22;;;;;;;14.68;13.13;;;;;;;;;;5104611;28;24493;-56
2021/12/29 10:25:48;;;;;;;13.90;12.40;;;;;;;;;;5101586;28;24898;-56
2021/12/29 10:28:33;;;;;;;14.47;12.97;;;;;;;;;;5099643;28;24588;-56
2021/12/29 10:31:00;;;;;;;15.02;13.43;;;;;;;;;;5100826;28;24394;-56
2021/12/29 10:33:29;;;;;;;16.88;15.07;;;;;;;;;;5104683;28;24466;-55
2021/12/29 10:35:54;;;;;;;16.15;14.45;;;;;;;;;;5102928;28;24389;-55
2021/12/29 10:38:21;;;;;;;16.95;14.77;;;;;;;;;;5102746;28;24417;-56
2021/12/29 10:40:46;;;;;;;15.10;13.50;;;;;;;;;;5101860;28;24401;-56
2021/12/29 10:43:12;;;;;;;15.80;13.30;;;;;;;;;;5099243;28;24410;-56
2021/12/29 10:45:38;;;;;;;17.87;15.60;;;;;;;;;;5102823;28;24421;-56
2021/12/29 10:48:16;;;;;;;16.55;14.60;;;;;;;;;;5105254;28;24786;-57
2021/12/29 10:50:52;;;;;;;14.65;13.10;;;;;;;;;;5102781;28;24409;-56
2021/12/29 10:53:21;;;;;;;15.13;13.55;;;;;;;;;;5098882;28;24402;-56
2021/12/29 10:55:46;;;;;;;17.10;15.30;;;;;;;;;;5101132;28;24485;-56
2021/12/29 10:58:14;;;;;;;17.23;15.43;;;;;;;;;;5084657;28;25585;-56
2021/12/29 11:00:40;;;;;;;15.82;13.70;;;;;;;;;;5082570;28;24764;-56
2021/12/29 11:03:13;;;;;;;15.80;14.10;;;;;;;;;;5085104;28;24422;-56
2021/12/29 11:05:40;;;;;;;18.00;15.00;;;;;;;;;;5082160;28;24434;-56
2021/12/29 11:08:06;;;;;;;16.42;14.73;;;;;;;;;;5078275;28;24390;-56
2021/12/29 11:10:31;;;;;;;16.63;13.90;;;;;;;;;;5078514;28;25009;-56
2021/12/29 11:12:56;;;;;;;17.17;15.40;;;;;;;;;;5083891;28;24424;-56
2021/12/29 11:15:27;;;;;;;16.27;14.57;;;;;;;;;;5099573;28;24748;-56
2021/12/29 11:17:53;;;;;;;16.77;14.97;;;;;;;;;;5102491;28;24966;-56
2021/12/29 11:20:19;;;;;;;16.23;14.63;;;;;;;;;;5100342;28;24413;-56
2021/12/29 11:22:45;;;;;;;16.88;15.07;;;;;;;;;;5100676;28;24409;-56
2021/12/29 11:25:10;;;;;;;16.67;14.87;;;;;;;;;;5103543;28;24963;-56
2021/12/29 11:27:35;;;;;;;16.25;14.43;;;;;;;;;;5102180;28;24407;-56
2021/12/29 11:30:03;;;;;;;17.70;15.80;;;;;;;;;;5104020;28;24469;-56
2021/12/29 11:32:34;;;;;;;17.95;15.88;;;;;;;;;;5101562;28;24394;-56
2021/12/29 11:35:02;;;;;;;17.27;15.48;;;;;;;;;;5100260;28;24562;-56
2021/12/29 11:37:27;;;;;;;18.05;16.13;;;;;;;;;;5099793;28;24420;-54
2021/12/29 11:39:52;;;;;;;17.83;15.20;;;;;;;;;;5103610;28;24390;-55
2021/12/29 11:42:18;;;;;;;17.70;15.00;;;;;;;;;;5103363;28;24382;-55
2021/12/29 11:44:43;;;;;;;18.35;15.63;;;;;;;;;;5101245;28;24401;-55
2021/12/29 11:47:08;;;;;;;18.07;15.43;;;;;;;;;;5098514;28;25250;-56
2021/12/29 11:49:34;;;;;;;18.43;15.90;;;;;;;;;;5101469;28;24398;-56
2021/12/29 11:52:02;;;;;;;19.90;17.63;;;;;;;;;;5103945;28;24429;-55
2021/12/29 11:54:42;;;;;;;18.67;16.50;;;;;;;;;;5103790;28;24481;-57
2021/12/29 11:57:14;;;;;;;19.05;15.80;;;;;;;;;;5079631;28;24399;-54
2021/12/29 11:59:39;;;;;;;19.27;16.67;;;;;;;;;;5095268;28;24424;-56
2021/12/29 12:02:04;;;;;;;19.00;16.17;;;;;;;;;;5103442;28;24409;-55
2021/12/29 12:04:30;;;;;;;19.27;16.83;;;;;;;;;;5103327;28;24488;-55
2021/12/29 12:07:03;;;;;;;21.57;17.80;;;;;;;;;;5101628;28;24559;-55
2021/12/29 12:09:28;;;;;;;26.65;20.50;;;;;;;;;;5098872;28;24431;-55
2021/12/29 12:11:55;;;;;;;20.30;17.60;;;;;;;;;;5097634;28;24414;-55
2021/12/29 12:14:28;;;;;;;21.17;17.40;;;;;;;;;;5097787;28;24396;-55
2021/12/29 12:16:55;;;;;;;21.42;17.63;;;;;;;;;;5102521;28;24462;-55
2021/12/29 12:19:21;;;;;;;21.57;18.27;;;;;;;;;;5103093;28;25103;-55
2021/12/29 12:21:46;;;;;;;24.17;18.90;;;;;;;;;;5100922;28;24405;-55
2021/12/29 12:24:15;;;;;;;22.63;19.30;;;;;;;;;;5099403;28;24463;-55
2021/12/29 12:26:55;;;;;;;21.95;18.58;;;;;;;;;;5097577;28;25048;-56
2021/12/29 12:29:21;;;;;;;27.73;23.15;;;;;;;;;;5103149;28;24402;-55
2021/12/29 12:32:05;;;;;;;25.93;21.13;;;;;;;;;;5100942;28;24390;-56
2021/12/29 12:34:31;;;;;;;23.08;19.95;;;;;;;;;;5102903;28;24381;-56
2021/12/29 12:36:56;;;;;;;22.77;18.63;;;;;;;;;;5097725;28;24751;-55
2021/12/29 12:39:21;;;;;;;24.00;20.50;;;;;;;;;;5097631;28;24385;-55
2021/12/29 12:41:53;;;;;;;23.80;19.13;;;;;;;;;;5100907;28;24382;-56
2021/12/29 12:44:28;;;;;;;22.92;18.17;;;;;;;;;;5103591;28;24382;-56
2021/12/29 12:46:53;;;;;;;21.73;18.40;;;;;;;;;;5099973;28;24489;-55
2021/12/29 12:49:20;;;;;;;21.73;18.33;;;;;;;;;;5101269;28;24382;-56
2021/12/29 12:51:55;;;;;;;25.75;19.45;;;;;;;;;;5097590;28;24814;-55
2021/12/29 12:54:21;;;;;;;22.35;18.88;;;;;;;;;;5093475;28;24935;-54
2021/12/29 12:56:47;;;;;;;27.38;20.58;;;;;;;;;;5097700;28;24428;-55
2021/12/29 12:59:12;;;;;;;24.05;19.23;;;;;;;;;;5106960;28;24496;-56
2021/12/29 13:01:42;;;;;;;22.00;18.40;;;;;;;;;;5101515;28;25075;-55
2021/12/29 13:04:08;;;;;;;20.48;17.42;;;;;;;;;;5103380;28;24642;-55
2021/12/29 13:06:34;;;;;;;21.90;18.40;;;;;;;;;;5104723;28;24428;-55
2021/12/29 13:09:01;;;;;;;23.67;18.88;;;;;;;;;;5106650;28;24436;-55
2021/12/29 13:11:30;;;;;;;21.83;18.25;;;;;;;;;;5107025;28;24434;-55
2021/12/29 13:13:55;;;;;;;21.92;18.27;;;;;;;;;;5105187;28;24454;-56
2021/12/29 13:16:22;;;;;;;22.90;18.20;;;;;;;;;;5103177;28;25458;-56
2021/12/29 13:18:47;;;;;;;25.48;20.52;;;;;;;;;;5103022;28;24670;-55
2021/12/29 13:21:14;;;;;;;21.58;18.30;;;;;;;;;;5106491;28;24485;-55
2021/12/29 13:23:40;;;;;;;21.50;18.15;;;;;;;;;;5106568;28;24397;-55
2021/12/29 13:26:06;;;;;;;21.50;17.50;;;;;;;;;;5102811;28;24480;-55
2021/12/29 13:28:31;;;;;;;21.17;17.83;;;;;;;;;;5102950;28;24408;-56
2021/12/29 13:31:02;;;;;;;20.90;17.30;;;;;;;;;;5100430;28;25013;-55
2021/12/29 13:33:37;;;;;;;22.63;19.38;;;;;;;;;;5102793;28;24382;-55
2021/12/29 13:36:04;;;;;;;22.52;19.60;;;;;;;;;;5106234;28;24402;-55
2021/12/29 13:38:31;;;;;;;22.77;19.00;;;;;;;;;;5106126;28;25407;-55
2021/12/29 13:41:11;;;;;;;21.30;17.98;;;;;;;;;;5104257;28;24404;-55
2021/12/29 13:43:38;;;;;;;21.50;17.88;;;;;;;;;;5100009;28;24414;-55
2021/12/29 13:46:17;;;;;;;23.15;19.45;;;;;;;;;;5102224;28;24571;-55
2021/12/29 13:48:43;;;;;;;23.15;19.33;;;;;;;;;;5103987;28;24397;-56
2021/12/29 13:51:13;;;;;;;21.10;18.80;;;;;;;;;;5106202;28;24389;-56
2021/12/29 13:53:39;;;;;;;22.77;19.02;;;;;;;;;;5092213;28;24752;-56
2021/12/29 13:56:14;;;;;;;23.23;19.48;;;;;;;;;;5091136;28;24973;-56
2021/12/29 13:58:40;;;;;;;22.40;19.50;;;;;;;;;;5102304;28;24409;-56
2021/12/29 14:01:06;;;;;;;22.05;19.65;;;;;;;;;;5106032;28;24409;-56
2021/12/29 14:03:32;;;;;;;22.63;19.23;;;;;;;;;;5105453;28;24579;-55
2021/12/29 14:06:02;;;;;;;22.67;19.35;;;;;;;;;;5103993;28;24800;-57
2021/12/29 14:08:27;;;;;;;22.17;19.20;;;;;;;;;;5101377;28;24573;-56
2021/12/29 14:10:53;;;;;;;22.07;18.30;;;;;;;;;;5100053;28;24985;-56
2021/12/29 14:13:19;;;;;;;23.47;19.33;;;;;;;;;;5100006;28;24394;-56
2021/12/29 14:15:45;;;;;;;20.88;18.02;;;;;;;;;;5103708;28;24409;-56